Time;durP1;ratioP1;P1;durP2;ratioP2;P2;SDS_P1;SDS_P2;PMS_P1;PMS_P2;Temp;Humidity;BMP_temperature;BMP_pressure;BME280_temperature;BME280_humidity;BME280_pressure;Samples;Min_cycle;Max_cycle;Signal;HPM_P1;HPM_P2
2022/01/07 00:00:53;;;;;;;;;;;3.50;99.90;;;;;;6089271;23;19929;-83
2022/01/07 00:03:19;;;;;;;;;;;3.50;99.90;;;;;;6086609;23;19921;-84
2022/01/07 00:05:44;;;;;;;;;;;3.50;99.90;;;;;;6085537;23;20004;-85
2022/01/07 00:08:10;;;;;;;;;;;3.40;99.90;;;;;;6110592;23;19976;-83
2022/01/07 00:10:36;;;;;;;;;;;3.50;99.90;;;;;;6085794;23;19940;-85
2022/01/07 00:13:02;;;;;;;;;;;3.50;99.90;;;;;;6112146;23;19988;-86
2022/01/07 00:15:28;;;;;;;;;;;3.50;99.90;;;;;;6086573;23;19922;-85
2022/01/07 00:17:54;;;;;;;;;;;3.50;99.90;;;;;;6110185;23;19997;-83
2022/01/07 00:20:19;;;;;;;;;;;3.50;99.90;;;;;;6108481;23;20045;-85
2022/01/07 00:22:47;;;;;;;;;;;3.50;99.90;;;;;;6086725;23;19929;-83
2022/01/07 00:25:13;;;;;;;;;;;3.50;99.90;;;;;;6111514;23;20294;-85
2022/01/07 00:27:39;;;;;;;;;;;3.50;99.90;;;;;;6109567;23;19926;-84
2022/01/07 00:30:06;;;;;;;;;;;3.40;99.90;;;;;;6109746;23;19925;-84
2022/01/07 00:32:32;;;;;;;;;;;3.40;99.90;;;;;;6109592;23;19929;-83
2022/01/07 00:34:57;;;;;;;;;;;3.80;99.90;;;;;;6082942;23;19932;-82
2022/01/07 00:37:22;;;;;;;;;;;3.40;99.90;;;;;;6085238;23;20404;-85
2022/01/07 00:39:49;;;;;;;;;;;3.40;99.90;;;;;;6111734;23;19945;-81
2022/01/07 00:42:15;;;;;;;;;;;3.40;99.90;;;;;;6096602;23;19921;-87
2022/01/07 00:44:40;;;;;;;;;;;3.40;99.90;;;;;;6087915;23;20004;-81
2022/01/07 00:47:06;;;;;;;;;;;3.30;99.90;;;;;;6088912;23;20261;-83
2022/01/07 00:49:32;;;;;;;;;;;3.30;99.90;;;;;;6110593;23;19925;-82
2022/01/07 00:51:59;;;;;;;;;;;3.30;99.90;;;;;;6107892;23;20410;-82
2022/01/07 00:54:25;;;;;;;;;;;3.20;99.90;;;;;;6086131;23;19923;-83
2022/01/07 00:56:50;;;;;;;;;;;3.20;99.90;;;;;;6113396;23;19929;-83
2022/01/07 00:59:16;;;;;;;;;;;3.10;99.90;;;;;;6112043;23;19919;-81
2022/01/07 01:01:42;;;;;;;;;;;3.10;99.90;;;;;;6109566;23;19921;-83
2022/01/07 01:04:08;;;;;;;;;;;3.10;99.90;;;;;;6108238;23;19928;-83
2022/01/07 01:06:33;;;;;;;;;;;3.00;99.90;;;;;;6111462;23;19917;-84
2022/01/07 01:08:59;;;;;;;;;;;3.00;99.90;;;;;;6085080;23;19928;-82
2022/01/07 01:11:24;;;;;;;;;;;3.00;99.90;;;;;;6086444;23;19969;-82
2022/01/07 01:13:50;;;;;;;;;;;3.00;99.90;;;;;;6110575;23;20122;-82
2022/01/07 01:16:15;;;;;;;;;;;2.90;99.90;;;;;;6106847;23;19925;-82
2022/01/07 01:18:41;;;;;;;;;;;2.90;99.90;;;;;;6111547;23;19925;-85
2022/01/07 01:21:09;;;;;;;;;;;2.90;99.90;;;;;;6087039;23;19976;-84
2022/01/07 01:23:35;;;;;;;;;;;2.80;99.90;;;;;;6088366;23;19925;-85
2022/01/07 01:26:00;;;;;;;;;;;2.80;99.90;;;;;;6113066;23;19921;-84
2022/01/07 01:28:26;;;;;;;;;;;2.80;99.90;;;;;;6087562;23;19921;-84
2022/01/07 01:30:51;;;;;;;;;;;2.80;99.90;;;;;;6109143;23;19925;-84
2022/01/07 01:33:18;;;;;;;;;;;2.70;99.90;;;;;;6110611;23;19936;-82
2022/01/07 01:35:44;;;;;;;;;;;1.80;99.90;;;;;;6108731;23;19925;-84
2022/01/07 01:38:09;;;;;;;;;;;2.70;99.90;;;;;;6109200;23;19921;-82
2022/01/07 01:40:35;;;;;;;;;;;2.60;99.90;;;;;;6108885;23;19930;-86
2022/01/07 01:43:01;;;;;;;;;;;2.60;99.90;;;;;;6089583;23;19925;-86
2022/01/07 01:45:29;;;;;;;;;;;2.60;99.90;;;;;;6081440;23;19928;-83
2022/01/07 01:47:58;;;;;;;;;;;2.60;99.90;;;;;;6086544;23;20331;-85
2022/01/07 01:50:24;;;;;;;;;;;2.60;99.90;;;;;;6085469;23;19929;-86
2022/01/07 01:52:53;;;;;;;;;;;2.50;99.90;;;;;;6105654;23;20258;-84
2022/01/07 01:55:20;;;;;;;;;;;3.40;99.90;;;;;;6109845;23;19926;-83
2022/01/07 01:57:45;;;;;;;;;;;2.50;99.90;;;;;;6108783;23;19964;-84
2022/01/07 02:00:11;;;;;;;;;;;2.50;99.90;;;;;;6107372;23;19928;-83
2022/01/07 02:02:37;;;;;;;;;;;2.50;99.90;;;;;;6111017;23;19925;-83
2022/01/07 02:05:03;;;;;;;;;;;2.40;99.90;;;;;;6110951;23;20354;-84
2022/01/07 02:07:29;;;;;;;;;;;2.40;99.90;;;;;;6113057;23;19996;-82
2022/01/07 02:09:55;;;;;;;;;;;2.40;99.90;;;;;;6113001;23;20715;-85
2022/01/07 02:12:20;;;;;;;;;;;2.40;99.90;;;;;;6114140;23;19952;-84
2022/01/07 02:14:50;;;;;;;;;;;2.40;99.90;;;;;;6107502;23;19971;-82
2022/01/07 02:17:16;;;;;;;;;;;2.40;99.90;;;;;;6108870;23;19968;-83
2022/01/07 02:19:41;;;;;;;;;;;2.40;99.90;;;;;;6108187;23;20250;-82
2022/01/07 02:22:07;;;;;;;;;;;2.30;99.90;;;;;;6085797;23;20250;-83
2022/01/07 02:24:35;;;;;;;;;;;2.30;99.90;;;;;;6087044;23;19929;-87
2022/01/07 02:27:00;;;;;;;;;;;2.30;99.90;;;;;;6085861;23;19921;-85
2022/01/07 02:29:26;;;;;;;;;;;2.30;99.90;;;;;;6087721;23;20330;-82
2022/01/07 02:31:52;;;;;;;;;;;2.30;99.90;;;;;;6087613;23;19922;-83
2022/01/07 02:34:17;;;;;;;;;;;2.30;99.90;;;;;;6084276;23;20398;-83
2022/01/07 02:36:43;;;;;;;;;;;2.30;99.90;;;;;;6084655;23;19929;-85
2022/01/07 02:39:08;;;;;;;;;;;2.30;99.90;;;;;;6086726;23;20356;-82
2022/01/07 02:41:34;;;;;;;;;;;1.80;99.90;;;;;;6111496;23;20003;-81
2022/01/07 02:43:59;;;;;;;;;;;2.30;99.90;;;;;;6110146;23;20016;-82
2022/01/07 02:46:25;;;;;;;;;;;2.30;99.90;;;;;;6085313;23;20740;-82
2022/01/07 02:48:50;;;;;;;;;;;2.30;99.90;;;;;;6111176;23;20342;-81
2022/01/07 02:51:16;;;;;;;;;;;3.10;99.90;;;;;;6065086;23;20021;-83
2022/01/07 02:53:41;;;;;;;;;;;2.30;99.90;;;;;;6111141;23;19922;-82
2022/01/07 02:56:07;;;;;;;;;;;2.90;99.90;;;;;;6089135;23;19925;-83
2022/01/07 02:58:32;;;;;;;;;;;2.30;99.90;;;;;;6085636;23;19925;-81
2022/01/07 03:00:58;;;;;;;;;;;2.30;99.90;;;;;;6110271;23;19923;-83
2022/01/07 03:03:23;;;;;;;;;;;2.30;99.90;;;;;;6110044;23;19922;-83
2022/01/07 03:05:49;;;;;;;;;;;2.30;99.90;;;;;;6110111;23;19948;-81
2022/01/07 03:08:15;;;;;;;;;;;2.30;99.90;;;;;;6109884;23;19936;-85
2022/01/07 03:10:40;;;;;;;;;;;2.30;99.90;;;;;;6110343;23;19928;-83
2022/01/07 03:13:06;;;;;;;;;;;2.30;99.90;;;;;;6114481;23;20357;-83
2022/01/07 03:15:33;;;;;;;;;;;2.30;99.90;;;;;;6108906;23;19925;-84
2022/01/07 03:17:58;;;;;;;;;;;2.30;99.90;;;;;;6086175;23;19932;-82
2022/01/07 03:20:24;;;;;;;;;;;2.30;99.90;;;;;;6061599;23;20330;-82
2022/01/07 03:22:50;;;;;;;;;;;2.30;99.90;;;;;;6109813;23;20362;-82
2022/01/07 03:25:16;;;;;;;;;;;2.30;99.90;;;;;;6087285;23;19956;-81
2022/01/07 03:27:42;;;;;;;;;;;3.00;99.90;;;;;;6088155;23;19970;-82
2022/01/07 03:30:10;;;;;;;;;;;2.30;99.90;;;;;;6089727;23;20353;-87
2022/01/07 03:32:36;;;;;;;;;;;2.30;99.90;;;;;;6088074;23;19921;-81
2022/01/07 03:35:02;;;;;;;;;;;2.30;99.90;;;;;;6083139;23;19921;-85
2022/01/07 03:37:27;;;;;;;;;;;2.80;99.90;;;;;;6108274;23;19925;-85
2022/01/07 03:39:53;;;;;;;;;;;2.30;99.90;;;;;;6094797;23;19921;-82
2022/01/07 03:42:18;;;;;;;;;;;2.30;99.90;;;;;;6066091;23;19932;-83
2022/01/07 03:44:44;;;;;;;;;;;2.30;99.90;;;;;;6111574;23;19996;-84
2022/01/07 03:47:09;;;;;;;;;;;2.30;99.90;;;;;;6083971;23;19933;-82
2022/01/07 03:49:35;;;;;;;;;;;2.30;99.90;;;;;;6083474;23;20727;-81
2022/01/07 03:52:00;;;;;;;;;;;2.30;99.90;;;;;;6086014;23;19953;-83
2022/01/07 03:54:27;;;;;;;;;;;2.30;99.90;;;;;;6087722;23;20242;-81
2022/01/07 03:56:53;;;;;;;;;;;2.40;99.90;;;;;;6086863;23;19953;-83
2022/01/07 03:59:18;;;;;;;;;;;2.40;99.90;;;;;;6090041;23;19939;-82
2022/01/07 04:01:44;;;;;;;;;;;2.30;99.90;;;;;;6087940;23;20306;-82
2022/01/07 04:04:09;;;;;;;;;;;2.40;99.90;;;;;;6110777;23;19922;-84
2022/01/07 04:06:35;;;;;;;;;;;2.40;99.90;;;;;;6114063;23;19929;-82
2022/01/07 04:09:00;;;;;;;;;;;2.40;99.90;;;;;;6111526;23;20271;-81
2022/01/07 04:11:26;;;;;;;;;;;2.40;99.90;;;;;;6113608;23;19921;-82
2022/01/07 04:13:51;;;;;;;;;;;2.40;99.90;;;;;;6112050;23;19948;-82
2022/01/07 04:16:17;;;;;;;;;;;2.40;99.90;;;;;;6108543;23;19973;-81
2022/01/07 04:18:43;;;;;;;;;;;2.90;99.90;;;;;;6109657;23;19975;-83
2022/01/07 04:21:09;;;;;;;;;;;2.40;99.90;;;;;;6112866;23;19921;-83
2022/01/07 04:23:34;;;;;;;;;;;2.40;99.90;;;;;;6111775;23;20423;-83
2022/01/07 04:26:00;;;;;;;;;;;2.60;99.90;;;;;;6085282;23;19958;-81
2022/01/07 04:28:25;;;;;;;;;;;2.40;99.90;;;;;;6085465;23;19936;-83
2022/01/07 04:30:51;;;;;;;;;;;2.50;99.90;;;;;;6087022;23;19925;-82
2022/01/07 04:33:25;;;;;;;;;;;2.50;99.90;;;;;;6083487;23;20673;-83
2022/01/07 04:35:50;;;;;;;;;;;2.50;99.90;;;;;;6110308;23;20491;-83
2022/01/07 04:38:16;;;;;;;;;;;2.50;99.90;;;;;;6111718;23;19921;-83
2022/01/07 04:40:41;;;;;;;;;;;2.50;99.90;;;;;;6109115;23;19925;-82
2022/01/07 04:43:07;;;;;;;;;;;2.50;99.90;;;;;;6083875;23;19917;-85
2022/01/07 04:45:34;;;;;;;;;;;2.50;99.90;;;;;;6108912;23;19925;-82
2022/01/07 04:47:59;;;;;;;;;;;2.50;99.90;;;;;;6083634;23;20013;-84
2022/01/07 04:50:25;;;;;;;;;;;2.50;99.90;;;;;;6083997;23;20802;-91
2022/01/07 04:52:51;;;;;;;;;;;2.50;99.90;;;;;;6088308;23;20235;-86
2022/01/07 04:55:18;;;;;;;;;;;2.50;99.90;;;;;;6110585;23;20356;-86
2022/01/07 04:57:44;;;;;;;;;;;2.60;99.90;;;;;;6085105;23;19925;-84
2022/01/07 05:00:10;;;;;;;;;;;2.60;99.90;;;;;;6111205;23;20500;-82
2022/01/07 05:02:35;;;;;;;;;;;2.60;99.90;;;;;;6108477;23;19932;-83
2022/01/07 05:05:03;;;;;;;;;;;2.60;99.90;;;;;;6108498;23;19928;-83
2022/01/07 05:07:28;;;;;;;;;;;2.60;99.90;;;;;;6060874;23;19949;-83
2022/01/07 05:09:54;;;;;;;;;;;2.60;99.90;;;;;;6093095;23;20266;-83
2022/01/07 05:12:19;;;;;;;;;;;2.70;99.90;;;;;;6112761;23;20346;-83
2022/01/07 05:14:45;;;;;;;;;;;2.70;99.90;;;;;;6107213;23;19929;-82
2022/01/07 05:17:10;;;;;;;;;;;2.70;99.90;;;;;;6108340;23;20366;-84
2022/01/07 05:19:36;;;;;;;;;;;2.70;99.90;;;;;;6086000;23;20044;-83
2022/01/07 05:22:01;;;;;;;;;;;2.70;99.90;;;;;;6110629;23;19921;-83
2022/01/07 05:24:27;;;;;;;;;;;2.70;99.90;;;;;;6107363;23;19929;-83
2022/01/07 05:26:52;;;;;;;;;;;2.70;99.90;;;;;;6110695;23;19928;-83
2022/01/07 05:29:18;;;;;;;;;;;2.70;99.90;;;;;;6108846;23;19921;-82
2022/01/07 05:31:44;;;;;;;;;;;2.80;99.90;;;;;;6110807;23;19921;-83
2022/01/07 05:34:09;;;;;;;;;;;2.80;99.90;;;;;;6083475;23;20504;-82
2022/01/07 05:36:37;;;;;;;;;;;2.80;99.90;;;;;;6109066;23;19930;-82
2022/01/07 05:39:02;;;;;;;;;;;2.80;99.90;;;;;;6085749;23;19996;-83
2022/01/07 05:41:28;;;;;;;;;;;2.80;99.90;;;;;;6109145;23;20627;-81
2022/01/07 05:43:53;;;;;;;;;;;2.90;99.90;;;;;;6107222;23;19921;-81
2022/01/07 05:46:19;;;;;;;;;;;2.90;99.90;;;;;;6108787;23;19925;-79
2022/01/07 05:48:45;;;;;;;;;;;2.90;99.90;;;;;;6109554;23;19952;-84
2022/01/07 05:51:11;;;;;;;;;;;3.20;99.90;;;;;;6083042;23;19921;-81
2022/01/07 05:53:37;;;;;;;;;;;2.90;99.90;;;;;;6107136;23;19953;-83
2022/01/07 05:56:03;;;;;;;;;;;2.90;99.90;;;;;;6120112;23;19921;-82
2022/01/07 05:58:28;;;;;;;;;;;3.00;99.90;;;;;;6109297;23;19929;-82
2022/01/07 06:00:55;;;;;;;;;;;2.60;99.90;;;;;;6113428;23;19928;-81
2022/01/07 06:03:21;;;;;;;;;;;3.00;99.90;;;;;;6087582;23;20016;-83
2022/01/07 06:05:46;;;;;;;;;;;3.00;99.90;;;;;;6110485;23;19945;-84
2022/01/07 06:08:12;;;;;;;;;;;3.00;99.90;;;;;;6112814;23;19969;-83
2022/01/07 06:10:37;;;;;;;;;;;3.00;99.90;;;;;;6088384;23;19921;-83
2022/01/07 06:13:03;;;;;;;;;;;3.00;99.90;;;;;;6111518;23;20255;-83
2022/01/07 06:15:28;;;;;;;;;;;3.00;99.90;;;;;;6110559;23;20025;-82
2022/01/07 06:17:54;;;;;;;;;;;3.70;99.90;;;;;;6111411;23;19964;-84
2022/01/07 06:20:21;;;;;;;;;;;3.10;99.90;;;;;;6085850;23;19980;-83
2022/01/07 06:22:46;;;;;;;;;;;3.00;99.90;;;;;;6111894;23;20047;-83
2022/01/07 06:25:12;;;;;;;;;;;3.10;99.90;;;;;;6109927;23;19968;-81
2022/01/07 06:27:38;;;;;;;;;;;3.20;99.90;;;;;;6089445;23;19933;-82
2022/01/07 06:30:04;;;;;;;;;;;3.20;99.90;;;;;;6113415;23;20397;-81
2022/01/07 06:32:30;;;;;;;;;;;3.20;99.90;;;;;;6085168;23;19992;-82
2022/01/07 06:34:55;;;;;;;;;;;3.20;99.90;;;;;;6108409;23;20016;-81
2022/01/07 06:37:21;;;;;;;;;;;3.20;99.90;;;;;;6111580;23;20283;-81
2022/01/07 06:39:47;;;;;;;;;;;3.20;99.90;;;;;;6085946;23;20334;-81
2022/01/07 06:42:12;;;;;;;;;;;3.20;99.90;;;;;;6108892;23;20588;-82
2022/01/07 06:44:38;;;;;;;;;;;3.20;99.90;;;;;;6086670;23;19925;-81
2022/01/07 06:47:04;;;;;;;;;;;3.20;99.90;;;;;;6108026;23;19976;-84
2022/01/07 06:49:29;;;;;;;;;;;3.20;99.90;;;;;;6109098;23;20010;-82
2022/01/07 06:51:55;;;;;;;;;;;3.20;99.90;;;;;;6112654;23;19964;-83
2022/01/07 06:54:20;;;;;;;;;;;3.20;99.90;;;;;;6087000;23;20307;-82
2022/01/07 06:56:46;;;;;;;;;;;3.20;99.90;;;;;;6112233;23;19976;-83
2022/01/07 06:59:15;;;;;;;;;;;3.20;99.90;;;;;;6109969;23;19949;-81
2022/01/07 07:01:41;;;;;;;;;;;3.20;99.90;;;;;;6109231;23;19922;-81
2022/01/07 07:04:07;;;;;;;;;;;3.20;99.90;;;;;;6111870;23;19921;-82
2022/01/07 07:06:34;;;;;;;;;;;3.20;99.90;;;;;;6085492;23;19925;-83
2022/01/07 07:09:00;;;;;;;;;;;3.20;99.90;;;;;;6110875;23;19921;-83
2022/01/07 07:11:27;;;;;;;;;;;3.30;99.90;;;;;;6110814;23;19931;-84
2022/01/07 07:13:52;;;;;;;;;;;3.30;99.90;;;;;;6087889;23;19970;-82
2022/01/07 07:16:18;;;;;;;;;;;3.30;99.90;;;;;;6108285;23;20020;-82
2022/01/07 07:18:43;;;;;;;;;;;3.30;99.90;;;;;;6112405;23;19921;-82
2022/01/07 07:21:09;;;;;;;;;;;3.30;99.90;;;;;;6113615;23;20017;-82
2022/01/07 07:23:34;;;;;;;;;;;3.30;99.90;;;;;;6113914;23;20337;-83
2022/01/07 07:26:00;;;;;;;;;;;3.30;99.90;;;;;;6115860;23;20366;-83
2022/01/07 07:28:25;;;;;;;;;;;3.30;99.90;;;;;;6087140;23;20350;-82
2022/01/07 07:30:54;;;;;;;;;;;3.40;99.90;;;;;;6088008;23;19922;-82
2022/01/07 07:38:41;;;;;;;;;;;3.40;99.90;;;;;;6091206;23;19921;-81
2022/01/07 07:41:07;;;;;;;;;;;3.40;99.90;;;;;;6112428;23;20369;-81
2022/01/07 07:43:33;;;;;;;;;;;3.40;99.90;;;;;;6112422;23;20585;-81
2022/01/07 07:45:59;;;;;;;;;;;3.50;99.90;;;;;;6086331;23;19947;-83
2022/01/07 07:48:24;;;;;;;;;;;3.50;99.90;;;;;;6109101;23;20262;-81
2022/01/07 07:50:50;;;;;;;;;;;3.50;99.90;;;;;;6112808;23;20247;-83
2022/01/07 07:53:18;;;;;;;;;;;3.50;99.90;;;;;;6089728;23;19921;-82
2022/01/07 07:55:48;;;;;;;;;;;3.50;99.90;;;;;;6090266;23;19929;-84
2022/01/07 07:58:13;;;;;;;;;;;3.50;99.90;;;;;;6112049;23;20291;-84
2022/01/07 08:00:39;;;;;;;;;;;3.60;99.90;;;;;;6088398;23;20021;-84
2022/01/07 08:03:05;;;;;;;;;;;3.60;99.90;;;;;;6112776;23;19972;-84
2022/01/07 08:05:34;;;;;;;;;;;4.60;99.90;;;;;;6112012;23;19964;-85
2022/01/07 08:08:02;;;;;;;;;;;3.60;99.90;;;;;;6086854;23;19921;-84
2022/01/07 08:10:28;;;;;;;;;;;3.70;99.90;;;;;;6118258;23;20008;-82
2022/01/07 08:13:25;;;;;;;;;;;3.70;99.90;;;;;;6088877;23;20484;-84
2022/01/07 08:15:58;;;;;;;;;;;3.70;99.90;;;;;;6112032;23;19921;-83
2022/01/07 08:18:25;;;;;;;;;;;4.10;99.90;;;;;;6111403;23;20000;-82
2022/01/07 08:20:51;;;;;;;;;;;3.80;99.90;;;;;;6113583;23;19936;-83
2022/01/07 08:23:17;;;;;;;;;;;3.80;99.90;;;;;;6114281;23;19992;-81
2022/01/07 08:25:43;;;;;;;;;;;3.80;99.90;;;;;;6090252;23;20405;-83
2022/01/07 08:28:09;;;;;;;;;;;3.80;99.90;;;;;;6113339;23;19973;-82
2022/01/07 08:30:36;;;;;;;;;;;3.80;99.90;;;;;;6112182;23;19944;-82
2022/01/07 08:35:46;;;;;;;;;;;3.90;99.90;;;;;;6088606;23;20310;-81
2022/01/07 08:38:12;;;;;;;;;;;4.00;99.90;;;;;;6089563;23;19956;-81
2022/01/07 08:40:38;;;;;;;;;;;4.00;99.90;;;;;;6113086;23;19921;-81
2022/01/07 08:43:03;;;;;;;;;;;4.00;99.90;;;;;;6088223;23;19976;-82
2022/01/07 08:45:29;;;;;;;;;;;4.10;99.90;;;;;;6085908;23;19921;-83
2022/01/07 08:47:56;;;;;;;;;;;4.10;99.90;;;;;;6090188;23;19925;-82
2022/01/07 08:50:22;;;;;;;;;;;4.10;99.90;;;;;;6113624;23;19936;-86
2022/01/07 08:52:47;;;;;;;;;;;4.10;99.90;;;;;;6092736;23;19921;-83
2022/01/07 08:55:13;;;;;;;;;;;4.20;99.90;;;;;;6092450;23;19921;-85
2022/01/07 08:57:39;;;;;;;;;;;4.20;99.90;;;;;;6088615;23;19925;-83
2022/01/07 09:00:07;;;;;;;;;;;4.70;99.90;;;;;;6109355;23;19939;-82
2022/01/07 09:02:33;;;;;;;;;;;4.20;99.90;;;;;;6109579;23;20012;-82
2022/01/07 09:04:58;;;;;;;;;;;4.20;99.90;;;;;;6084531;23;19925;-84
2022/01/07 09:07:24;;;;;;;;;;;4.20;99.90;;;;;;6086054;23;19921;-84
2022/01/07 09:09:49;;;;;;;;;;;4.20;99.90;;;;;;6088375;23;20394;-83
2022/01/07 09:12:15;;;;;;;;;;;4.30;99.90;;;;;;6088944;23;19931;-85
2022/01/07 09:14:40;;;;;;;;;;;4.30;99.90;;;;;;6107669;23;20253;-84
2022/01/07 09:17:06;;;;;;;;;;;4.60;99.90;;;;;;6106103;23;19921;-83
2022/01/07 09:19:32;;;;;;;;;;;4.20;99.90;;;;;;6106676;23;19926;-86
2022/01/07 09:21:57;;;;;;;;;;;4.30;99.90;;;;;;6085161;23;20291;-84
2022/01/07 09:24:23;;;;;;;;;;;4.30;99.90;;;;;;6085334;23;19921;-84
2022/01/07 09:26:49;;;;;;;;;;;4.30;99.90;;;;;;6083991;23;20000;-82
2022/01/07 09:29:14;;;;;;;;;;;3.90;99.90;;;;;;6083453;23;20003;-84
2022/01/07 09:31:40;;;;;;;;;;;4.40;99.90;;;;;;6108091;23;19947;-84
2022/01/07 09:34:07;;;;;;;;;;;4.40;99.90;;;;;;6085146;23;20032;-86
2022/01/07 09:36:33;;;;;;;;;;;4.40;99.90;;;;;;6111473;23;19920;-83
2022/01/07 09:38:58;;;;;;;;;;;4.40;99.90;;;;;;6111558;23;19925;-85
2022/01/07 09:41:24;;;;;;;;;;;5.30;99.90;;;;;;6083003;23;20379;-82
2022/01/07 09:43:50;;;;;;;;;;;4.40;99.90;;;;;;6085062;23;19984;-83
2022/01/07 09:46:18;;;;;;;;;;;4.50;99.90;;;;;;6085709;23;19917;-82
2022/01/07 09:48:44;;;;;;;;;;;4.50;99.90;;;;;;6079124;23;20356;-84
2022/01/07 09:51:09;;;;;;;;;;;4.50;99.90;;;;;;6112778;23;19932;-85
2022/01/07 09:53:35;;;;;;;;;;;4.50;99.90;;;;;;6087548;23;20504;-85
2022/01/07 09:56:03;;;;;;;;;;;4.70;99.90;;;;;;6086362;23;20012;-87
2022/01/07 09:58:29;;;;;;;;;;;4.70;99.90;;;;;;6088724;23;20004;-85
2022/01/07 10:01:00;;;;;;;;;;;4.80;99.90;;;;;;6113045;23;19964;-84
2022/01/07 10:03:25;;;;;;;;;;;4.80;99.90;;;;;;6109946;23;19939;-85
2022/01/07 10:05:52;;;;;;;;;;;4.80;99.90;;;;;;6109265;23;19926;-84
2022/01/07 10:08:24;;;;;;;;;;;4.80;99.90;;;;;;6110499;23;19929;-87
2022/01/07 10:11:08;;;;;;;;;;;4.80;99.90;;;;;;6108545;23;19959;-84
2022/01/07 10:13:33;;;;;;;;;;;4.80;99.90;;;;;;6082248;23;19956;-83
2022/01/07 10:16:11;;;;;;;;;;;4.80;99.90;;;;;;6105769;23;20688;-83
2022/01/07 10:18:39;;;;;;;;;;;4.90;99.90;;;;;;6109506;23;19972;-81
2022/01/07 10:21:08;;;;;;;;;;;4.80;99.90;;;;;;6111491;23;19937;-82
2022/01/07 10:23:34;;;;;;;;;;;4.70;99.90;;;;;;6111150;23;19925;-79
2022/01/07 10:25:59;;;;;;;;;;;4.70;99.90;;;;;;6086476;23;20025;-81
2022/01/07 10:28:30;;;;;;;;;;;4.70;99.90;;;;;;6111774;23;20048;-81
2022/01/07 10:30:55;;;;;;;;;;;4.70;99.90;;;;;;6110824;23;19933;-89
2022/01/07 10:33:21;;;;;;;;;;;4.70;99.90;;;;;;6090564;23;19921;-86
2022/01/07 10:35:47;;;;;;;;;;;4.60;99.90;;;;;;6112483;23;19929;-85
2022/01/07 10:38:17;;;;;;;;;;;4.60;99.90;;;;;;6112266;23;20290;-83
2022/01/07 10:40:45;;;;;;;;;;;4.60;99.90;;;;;;6086141;23;19925;-81
2022/01/07 10:43:19;;;;;;;;;;;4.60;99.90;;;;;;6111158;23;19968;-80
2022/01/07 10:45:46;;;;;;;;;;;4.60;99.90;;;;;;6109947;23;19988;-82
2022/01/07 10:48:12;;;;;;;;;;;4.70;99.90;;;;;;6087019;23;20327;-85
2022/01/07 10:50:39;;;;;;;;;;;5.30;99.90;;;;;;6082913;23;19917;-83
2022/01/07 10:53:27;;;;;;;;;;;6.20;99.90;;;;;;6087454;23;19929;-84
2022/01/07 10:55:57;;;;;;;;;;;7.00;99.90;;;;;;6110151;23;20355;-84
2022/01/07 10:58:23;;;;;;;;;;;6.90;99.90;;;;;;6086977;23;19941;-83
2022/01/07 11:00:48;;;;;;;;;;;6.60;99.90;;;;;;6088506;23;20032;-85
2022/01/07 11:03:14;;;;;;;;;;;6.20;99.90;;;;;;6085960;23;19929;-81
2022/01/07 11:05:41;;;;;;;;;;;5.90;99.90;;;;;;6089011;23;19925;-86
2022/01/07 11:08:07;;;;;;;;;;;5.80;99.90;;;;;;6118955;23;20272;-84
2022/01/07 11:10:33;;;;;;;;;;;5.80;99.90;;;;;;6116182;23;19941;-82
2022/01/07 11:12:59;;;;;;;;;;;5.90;99.90;;;;;;6116717;23;19980;-83
2022/01/07 11:15:25;;;;;;;;;;;6.10;99.90;;;;;;6090141;23;20122;-82
2022/01/07 11:17:50;;;;;;;;;;;6.10;99.90;;;;;;6109049;23;20085;-83
2022/01/07 11:20:23;;;;;;;;;;;6.30;99.90;;;;;;6107748;23;19992;-85
2022/01/07 11:22:49;;;;;;;;;;;6.00;99.90;;;;;;6109757;23;20367;-83
2022/01/07 11:25:15;;;;;;;;;;;6.00;99.90;;;;;;6088115;23;20008;-83
2022/01/07 11:27:51;;;;;;;;;;;6.10;99.90;;;;;;6111772;23;20347;-82
2022/01/07 11:30:23;;;;;;;;;;;6.00;99.90;;;;;;6108980;23;20407;-82
2022/01/07 11:32:49;;;;;;;;;;;6.10;99.90;;;;;;6106809;23;19969;-83
2022/01/07 11:35:22;;;;;;;;;;;6.50;99.90;;;;;;6082423;23;19925;-83
2022/01/07 11:37:50;;;;;;;;;;;6.50;99.90;;;;;;6109011;23;19921;-83
2022/01/07 11:40:41;;;;;;;;;;;6.40;99.90;;;;;;6085519;23;20247;-83
2022/01/07 11:43:13;;;;;;;;;;;6.40;99.90;;;;;;6087319;23;19929;-84
2022/01/07 11:45:39;;;;;;;;;;;6.30;99.90;;;;;;6111719;23;20024;-83
2022/01/07 11:48:13;;;;;;;;;;;6.70;99.90;;;;;;6108420;23;19961;-85
2022/01/07 11:51:07;;;;;;;;;;;6.10;99.90;;;;;;6088794;23;19952;-85
2022/01/07 11:53:36;;;;;;;;;;;6.00;99.90;;;;;;6093208;23;20235;-84
2022/01/07 11:56:03;;;;;;;;;;;6.00;99.90;;;;;;6083609;23;19933;-83
2022/01/07 11:58:41;;;;;;;;;;;5.90;99.90;;;;;;6108170;23;19968;-83
2022/01/07 12:01:21;;;;;;;;;;;5.90;99.90;;;;;;6107939;23;19921;-82
2022/01/07 12:03:49;;;;;;;;;;;5.90;99.90;;;;;;6085975;23;19973;-84
2022/01/07 12:06:17;;;;;;;;;;;5.90;99.90;;;;;;6085805;23;20027;-83
2022/01/07 12:08:58;;;;;;;;;;;5.90;99.90;;;;;;6085437;23;19980;-83
2022/01/07 12:11:24;;;;;;;;;;;5.90;99.90;;;;;;6087406;23;20364;-82
2022/01/07 12:13:59;;;;;;;;;;;5.90;99.90;;;;;;6115014;23;19928;-84
2022/01/07 12:16:29;;;;;;;;;;;5.90;99.90;;;;;;6141891;23;20243;-84
2022/01/07 12:19:14;;;;;;;;;;;5.80;99.90;;;;;;6139207;23;20253;-86
2022/01/07 12:21:40;;;;;;;;;;;5.90;99.90;;;;;;6136470;23;19921;-84
2022/01/07 12:24:10;;;;;;;;;;;5.90;99.90;;;;;;6105337;23;19925;-86
2022/01/07 12:26:36;;;;;;;;;;;5.90;99.90;;;;;;6141480;23;19917;-84
2022/01/07 12:29:02;;;;;;;;;;;5.90;99.90;;;;;;6143267;23;19921;-84
2022/01/07 12:31:27;;;;;;;;;;;6.00;99.90;;;;;;6122026;23;20303;-85
2022/01/07 12:34:08;;;;;;;;;;;6.00;99.90;;;;;;6145471;23;20263;-84
2022/01/07 12:36:35;;;;;;;;;;;5.50;99.90;;;;;;6122229;23;19928;-86
2022/01/07 12:39:12;;;;;;;;;;;6.30;99.90;;;;;;6143390;23;20290;-83
2022/01/07 12:41:51;;;;;;;;;;;6.00;99.90;;;;;;6118706;23;19991;-84
2022/01/07 12:44:16;;;;;;;;;;;6.10;99.90;;;;;;6092734;23;19976;-92
2022/01/07 12:46:49;;;;;;;;;;;6.30;99.90;;;;;;6136884;23;19925;-85
2022/01/07 12:49:14;;;;;;;;;;;4.90;99.90;;;;;;6136380;23;20302;-84
2022/01/07 12:52:22;;;;;;;;;;;6.00;99.90;;;;;;6093066;23;20023;-84
2022/01/07 12:55:06;;;;;;;;;;;5.90;99.90;;;;;;6008329;23;19928;-89
2022/01/07 12:57:33;;;;;;;;;;;5.90;99.90;;;;;;6003652;23;20005;-86
2022/01/07 13:00:16;;;;;;;;;;;5.90;99.90;;;;;;6068337;23;19921;-88
2022/01/07 13:02:44;;;;;;;;;;;5.80;99.90;;;;;;6118044;23;19921;-84
2022/01/07 13:05:14;;;;;;;;;;;5.70;99.90;;;;;;6117694;23;19916;-85
2022/01/07 13:07:41;;;;;;;;;;;5.70;99.90;;;;;;6138716;23;19987;-83
2022/01/07 13:10:07;;;;;;;;;;;5.60;99.90;;;;;;6138930;23;20286;-84
2022/01/07 13:12:32;;;;;;;;;;;5.60;99.90;;;;;;6139712;23;19928;-83
2022/01/07 13:14:58;;;;;;;;;;;5.50;99.90;;;;;;6114909;23;19932;-84
2022/01/07 13:17:23;;;;;;;;;;;5.40;99.90;;;;;;6118088;23;19921;-83
2022/01/07 13:19:50;;;;;;;;;;;5.40;99.90;;;;;;6091877;23;19932;-84
2022/01/07 13:22:21;;;;;;;;;;;5.30;99.90;;;;;;6142017;23;19948;-84
2022/01/07 13:24:47;;;;;;;;;;;5.60;99.90;;;;;;6140467;23;20298;-89
2022/01/07 13:27:14;;;;;;;;;;;5.20;99.90;;;;;;6142171;23;19921;-85
2022/01/07 13:29:45;;;;;;;;;;;5.20;99.90;;;;;;6140424;23;20210;-84
2022/01/07 13:32:11;;;;;;;;;;;5.20;99.90;;;;;;6142380;23;19948;-85
2022/01/07 13:34:38;;;;;;;;;;;5.10;99.90;;;;;;6139736;23;19921;-85
2022/01/07 13:37:05;;;;;;;;;;;5.10;99.90;;;;;;6140350;23;19947;-85
2022/01/07 13:39:41;;;;;;;;;;;5.10;99.90;;;;;;6140264;23;19921;-84
2022/01/07 13:42:07;;;;;;;;;;;5.10;99.90;;;;;;6114459;23;19941;-84
2022/01/07 13:44:46;;;;;;;;;;;5.10;99.90;;;;;;6140011;23;19921;-85
2022/01/07 13:47:18;;;;;;;;;;;5.00;99.90;;;;;;6142552;23;19921;-83
2022/01/07 13:49:50;;;;;;;;;;;5.00;99.90;;;;;;6119860;23;19925;-83
2022/01/07 13:52:26;;;;;;;;;;;5.00;99.90;;;;;;6116238;23;19937;-88
2022/01/07 13:54:53;;;;;;;;;;;5.00;99.90;;;;;;6138854;23;20011;-85
2022/01/07 13:57:18;;;;;;;;;;;5.00;99.90;;;;;;6114461;23;20312;-84
2022/01/07 13:59:45;;;;;;;;;;;4.90;99.90;;;;;;6140431;23;19937;-85
2022/01/07 14:02:15;;;;;;;;;;;4.90;99.90;;;;;;6114530;23;19920;-84
2022/01/07 14:04:45;;;;;;;;;;;4.90;99.90;;;;;;6138078;23;20520;-83
2022/01/07 14:07:20;;;;;;;;;;;4.90;99.90;;;;;;6118107;23;20535;-85
2022/01/07 14:10:04;;;;;;;;;;;4.90;99.90;;;;;;6117409;23;19921;-84
2022/01/07 14:12:38;;;;;;;;;;;4.80;99.90;;;;;;6142701;23;20293;-83
2022/01/07 14:15:04;;;;;;;;;;;4.80;99.90;;;;;;6138331;23;19981;-85
2022/01/07 14:17:30;;;;;;;;;;;4.80;99.90;;;;;;6138108;23;20007;-85
2022/01/07 14:19:56;;;;;;;;;;;4.70;99.90;;;;;;6134038;23;19925;-84
2022/01/07 14:22:23;;;;;;;;;;;4.70;99.90;;;;;;6139906;23;20000;-85
2022/01/07 14:24:51;;;;;;;;;;;4.70;99.90;;;;;;6129341;23;19976;-85
2022/01/07 14:27:23;;;;;;;;;;;4.70;99.90;;;;;;6139237;23;19967;-85
2022/01/07 14:30:11;;;;;;;;;;;4.70;99.90;;;;;;6138803;23;20235;-85
2022/01/07 14:32:46;;;;;;;;;;;4.70;99.90;;;;;;6140362;23;19921;-84
2022/01/07 14:35:12;;;;;;;;;;;4.60;99.90;;;;;;6138391;23;19943;-84
2022/01/07 14:37:38;;;;;;;;;;;4.50;99.90;;;;;;6113085;23;19932;-85
2022/01/07 14:40:16;;;;;;;;;;;4.60;99.90;;;;;;6135243;23;20298;-85